createdAt,value
2023-04-23T00:02:02.296Z,10.90
2023-04-23T00:04:28.993Z,9.90
2023-04-23T00:06:55.666Z,10.73
2023-04-23T00:09:22.204Z,9.70
2023-04-23T00:11:48.766Z,10.23
2023-04-23T00:14:15.213Z,9.75
2023-04-23T00:16:41.796Z,10.13
2023-04-23T00:19:08.560Z,10.32
2023-04-23T00:21:35.070Z,9.88
2023-04-23T00:24:01.553Z,10.77
2023-04-23T00:26:28.214Z,9.95
2023-04-23T00:28:54.733Z,10.27
2023-04-23T00:31:21.318Z,10.20
2023-04-23T00:33:48.405Z,10.63
2023-04-23T00:36:14.827Z,10.82
2023-04-23T00:38:41.305Z,10.27
2023-04-23T00:41:08.209Z,10.50
2023-04-23T00:43:34.676Z,10.65
2023-04-23T00:46:01.149Z,10.18
2023-04-23T00:48:28.256Z,11.15
2023-04-23T00:50:54.727Z,9.88
2023-04-23T00:53:21.574Z,10.32
2023-04-23T00:55:48.016Z,10.32
2023-04-23T00:58:15.272Z,10.27
2023-04-23T01:00:41.730Z,10.52
2023-04-23T01:03:11.830Z,10.73
2023-04-23T01:05:38.494Z,10.60
2023-04-23T01:08:07.256Z,10.82
2023-04-23T01:10:34.039Z,11.07
2023-04-23T01:13:00.928Z,11.38
2023-04-23T01:15:27.470Z,10.63
2023-04-23T01:17:54.335Z,10.55
2023-04-23T01:20:20.766Z,11.65
2023-04-23T01:22:49.244Z,10.50
2023-04-23T01:25:16.073Z,11.23
2023-04-23T01:27:42.604Z,11.10
2023-04-23T01:30:09.388Z,11.05
2023-04-23T01:32:35.949Z,10.98
2023-04-23T01:35:02.784Z,10.63
2023-04-23T01:37:29.970Z,10.85
2023-04-23T01:39:56.747Z,10.65
2023-04-23T01:42:23.277Z,11.02
2023-04-23T01:44:49.931Z,11.18
2023-04-23T01:47:16.369Z,10.75
2023-04-23T01:49:43.056Z,11.18
2023-04-23T01:52:09.513Z,10.70
2023-04-23T01:54:36.161Z,11.18
2023-04-23T01:57:02.640Z,10.57
2023-04-23T01:59:29.073Z,11.13
2023-04-23T02:01:55.554Z,11.07
2023-04-23T02:04:22.735Z,10.40
2023-04-23T02:06:49.263Z,11.07
2023-04-23T02:09:15.792Z,10.45
2023-04-23T02:11:42.341Z,11.77
2023-04-23T02:14:08.724Z,10.80
2023-04-23T02:16:35.714Z,10.38
2023-04-23T02:19:02.250Z,10.38
2023-04-23T02:21:28.747Z,10.90
2023-04-23T02:23:55.756Z,11.13
2023-04-23T02:26:22.733Z,10.60
2023-04-23T02:28:49.266Z,10.40
2023-04-23T02:31:16.354Z,11.27
2023-04-23T02:33:42.943Z,10.40
2023-04-23T02:36:09.595Z,10.77
2023-04-23T02:38:36.524Z,10.10
2023-04-23T02:41:03.066Z,10.90
2023-04-23T02:43:29.611Z,11.02
2023-04-23T02:45:56.039Z,10.52
2023-04-23T02:48:22.681Z,10.45
2023-04-23T02:50:49.120Z,10.02
2023-04-23T02:53:15.622Z,9.70
2023-04-23T02:55:42.444Z,10.60
2023-04-23T02:58:09.017Z,10.45
2023-04-23T03:00:35.559Z,10.50
2023-04-23T03:03:03.290Z,10.50
2023-04-23T03:05:38.063Z,10.23
2023-04-23T03:08:04.708Z,10.43
2023-04-23T03:10:31.857Z,10.30
2023-04-23T03:12:59.424Z,10.02
2023-04-23T03:15:26.798Z,10.30
2023-04-23T03:17:54.119Z,9.95
2023-04-23T03:20:21.162Z,10.60
2023-04-23T03:22:48.892Z,10.18
2023-04-23T03:25:16.161Z,10.85
2023-04-23T03:27:42.967Z,10.00
2023-04-23T03:30:10.238Z,10.40
2023-04-23T03:32:37.994Z,10.77
2023-04-23T03:35:04.437Z,10.30
2023-04-23T03:37:31.008Z,10.15
2023-04-23T03:39:57.644Z,10.95
2023-04-23T03:42:24.501Z,10.80
2023-04-23T03:44:50.959Z,11.18
2023-04-23T03:47:17.632Z,10.40
2023-04-23T03:49:44.281Z,10.43
2023-04-23T03:52:10.644Z,10.20
2023-04-23T03:54:37.201Z,10.52
2023-04-23T03:57:03.690Z,10.40
2023-04-23T03:59:30.146Z,9.90
2023-04-23T04:01:56.591Z,11.30
2023-04-23T04:04:23.262Z,10.63
2023-04-23T04:06:50.090Z,10.27
2023-04-23T04:09:16.670Z,10.70
2023-04-23T04:11:43.069Z,9.88
2023-04-23T04:14:10.030Z,10.40
2023-04-23T04:16:36.776Z,9.93
2023-04-23T04:19:03.209Z,11.05
2023-04-23T04:21:29.659Z,10.40
2023-04-23T04:23:56.184Z,10.07
2023-04-23T04:26:22.895Z,10.73
2023-04-23T04:28:49.402Z,9.80
2023-04-23T04:31:15.994Z,10.32
2023-04-23T04:33:42.605Z,10.88
2023-04-23T04:36:09.420Z,10.68
2023-04-23T04:38:35.857Z,10.13
2023-04-23T04:41:02.211Z,10.35
2023-04-23T04:43:28.591Z,9.65
2023-04-23T04:45:54.962Z,10.32
2023-04-23T04:48:21.762Z,9.98
2023-04-23T04:50:48.157Z,9.65
2023-04-23T04:53:14.633Z,10.10
2023-04-23T04:55:41.380Z,10.20
2023-04-23T04:58:07.789Z,10.98
2023-04-23T05:00:34.143Z,9.98
2023-04-23T05:03:00.647Z,10.10
2023-04-23T05:05:27.395Z,9.90
2023-04-23T05:07:53.842Z,10.55
2023-04-23T05:10:20.273Z,10.13
2023-04-23T05:12:47.123Z,9.80
2023-04-23T05:15:13.784Z,9.65
2023-04-23T05:17:40.219Z,10.02
2023-04-23T05:20:06.677Z,9.95
2023-04-23T05:22:33.548Z,10.82
2023-04-23T05:24:59.916Z,10.30
2023-04-23T05:27:26.859Z,10.38
2023-04-23T05:29:53.318Z,9.73
2023-04-23T05:32:19.898Z,9.55
2023-04-23T05:34:46.645Z,9.98
2023-04-23T05:37:13.196Z,9.93
2023-04-23T05:39:39.665Z,9.32
2023-04-23T05:42:06.144Z,10.80
2023-04-23T05:44:32.608Z,9.45
2023-04-23T05:46:59.237Z,10.02
2023-04-23T05:49:25.966Z,9.95
2023-04-23T05:51:52.448Z,10.10
2023-04-23T05:54:18.897Z,8.70
2023-04-23T05:56:45.976Z,9.27
2023-04-23T05:59:12.775Z,10.30
2023-04-23T06:01:39.175Z,9.18
2023-04-23T06:04:06.063Z,9.45
2023-04-23T06:06:33.170Z,9.65
2023-04-23T06:08:59.622Z,9.68
2023-04-23T06:11:26.040Z,9.65
2023-04-23T06:13:52.534Z,8.70
2023-04-23T06:16:18.892Z,9.23
2023-04-23T06:18:45.366Z,9.50
2023-04-23T06:21:11.812Z,10.25
2023-04-23T06:23:38.334Z,9.95
2023-04-23T06:26:04.863Z,9.32
2023-04-23T06:28:31.372Z,8.82
2023-04-23T06:30:57.901Z,9.57
2023-04-23T06:33:24.336Z,9.07
2023-04-23T06:35:50.890Z,8.88
2023-04-23T06:38:17.588Z,9.52
2023-04-23T06:40:44.575Z,9.55
2023-04-23T06:43:11.005Z,9.63
2023-04-23T06:45:37.557Z,10.02
2023-04-23T06:48:03.996Z,10.10
2023-04-23T06:50:30.526Z,9.82
2023-04-23T06:52:57.266Z,9.40
2023-04-23T06:55:24.056Z,9.50
2023-04-23T06:57:50.552Z,9.38
2023-04-23T07:00:17.094Z,9.80
2023-04-23T07:02:43.796Z,9.32
2023-04-23T07:05:10.319Z,9.25
2023-04-23T07:07:37.215Z,9.77
2023-04-23T07:10:03.771Z,9.10
2023-04-23T07:12:30.203Z,9.80
2023-04-23T07:14:56.630Z,9.77
2023-04-23T07:17:23.199Z,9.65
2023-04-23T07:19:49.887Z,9.98
2023-04-23T07:22:16.774Z,10.10
2023-04-23T07:24:43.430Z,9.38
2023-04-23T07:27:10.088Z,9.05
2023-04-23T07:29:36.680Z,9.40
2023-04-23T07:32:03.086Z,9.23
2023-04-23T07:34:29.699Z,9.73
2023-04-23T07:36:56.095Z,8.75
2023-04-23T07:39:22.733Z,8.85
2023-04-23T07:41:49.669Z,9.65
2023-04-23T07:44:16.418Z,9.88
2023-04-23T07:46:42.943Z,9.65
2023-04-23T07:49:09.878Z,9.48
2023-04-23T07:51:36.318Z,8.90
2023-04-23T07:54:02.966Z,9.82
2023-04-23T07:56:29.383Z,9.73
2023-04-23T07:58:56.450Z,9.35
2023-04-23T08:01:22.902Z,9.82
2023-04-23T08:03:49.604Z,10.18
2023-04-23T08:06:16.251Z,9.27
2023-04-23T08:08:42.619Z,9.95
2023-04-23T08:11:09.260Z,9.07
2023-04-23T08:13:35.722Z,9.15
2023-04-23T08:16:02.353Z,9.13
2023-04-23T08:18:28.851Z,8.77
2023-04-23T08:20:55.590Z,9.60
2023-04-23T08:23:22.134Z,9.82
2023-04-23T08:25:48.601Z,9.93
2023-04-23T08:28:15.307Z,8.80
2023-04-23T08:30:41.959Z,9.00
2023-04-23T08:33:08.461Z,8.98
2023-04-23T08:35:35.254Z,9.68
2023-04-23T08:38:01.654Z,8.73
2023-04-23T08:40:28.201Z,9.98
2023-04-23T08:42:54.686Z,9.38
2023-04-23T08:45:21.327Z,9.20
2023-04-23T08:47:47.783Z,8.85
2023-04-23T08:50:14.309Z,9.60
2023-04-23T08:52:40.793Z,9.00
2023-04-23T08:55:07.434Z,9.05
2023-04-23T08:57:33.828Z,9.18
2023-04-23T09:00:00.797Z,9.65
2023-04-23T09:02:28.003Z,8.88
2023-04-23T09:04:56.173Z,9.68
2023-04-23T09:07:23.014Z,9.52
2023-04-23T09:09:49.551Z,8.80
2023-04-23T09:12:16.019Z,9.73
2023-04-23T09:14:42.766Z,9.48
2023-04-23T09:17:09.481Z,9.57
2023-04-23T09:19:35.968Z,9.02
2023-04-23T09:22:02.399Z,9.77
2023-04-23T09:24:29.148Z,9.25
2023-04-23T09:26:55.653Z,8.80
2023-04-23T09:29:22.216Z,9.90
2023-04-23T09:31:48.738Z,8.43
2023-04-23T09:34:15.656Z,9.88
2023-04-23T09:36:42.138Z,9.90
2023-04-23T09:39:08.640Z,9.23
2023-04-23T09:41:35.050Z,9.10
2023-04-23T09:44:01.526Z,9.38
2023-04-23T09:46:28.159Z,8.63
2023-04-23T09:48:54.663Z,9.50
2023-04-23T09:51:21.390Z,8.57
2023-04-23T09:53:47.882Z,10.38
2023-04-23T09:56:14.397Z,9.52
2023-04-23T09:58:41.008Z,8.88
2023-04-23T10:01:07.475Z,9.30
2023-04-23T10:03:34.399Z,8.73
2023-04-23T10:06:02.477Z,8.88
2023-04-23T10:08:29.316Z,9.18
2023-04-23T10:11:09.513Z,8.65
2023-04-23T10:13:40.604Z,8.98
2023-04-23T10:16:20.602Z,9.20
2023-04-23T10:18:48.593Z,8.70
2023-04-23T10:21:15.256Z,9.23
2023-04-23T10:23:41.933Z,9.40
2023-04-23T10:26:08.556Z,8.70
2023-04-23T10:28:35.093Z,8.70
2023-04-23T10:31:01.613Z,9.18
2023-04-23T10:33:31.803Z,8.90
2023-04-23T10:36:00.118Z,8.50
2023-04-23T10:38:26.484Z,9.10
2023-04-23T10:40:53.333Z,9.13
2023-04-23T10:43:19.878Z,8.55
2023-04-23T10:45:46.526Z,8.43
2023-04-23T10:48:13.278Z,9.27
2023-04-23T10:50:48.220Z,7.93
2023-04-23T10:53:26.998Z,8.63
2023-04-23T10:55:53.420Z,9.63
2023-04-23T10:58:19.849Z,9.00
2023-04-23T11:00:46.564Z,8.75
2023-04-23T11:03:13.571Z,8.32
2023-04-23T11:05:40.158Z,8.02
2023-04-23T11:10:36.430Z,8.73
2023-04-23T11:13:02.894Z,8.30
2023-04-23T11:15:29.350Z,7.88
2023-04-23T11:17:55.799Z,8.40
2023-04-23T11:20:22.533Z,8.73
2023-04-23T11:22:49.091Z,8.27
2023-04-23T11:25:15.703Z,8.65
2023-04-23T11:27:42.459Z,7.88
2023-04-23T11:30:09.680Z,8.52
2023-04-23T11:32:36.180Z,8.93
2023-04-23T11:35:02.786Z,9.00
2023-04-23T11:37:29.444Z,8.07
2023-04-23T11:39:55.964Z,7.95
2023-04-23T11:42:23.062Z,8.50
2023-04-23T11:44:49.564Z,8.27
2023-04-23T11:47:16.068Z,8.50
2023-04-23T11:49:42.969Z,8.77
2023-04-23T11:52:09.666Z,8.07
2023-04-23T11:54:36.132Z,7.88
2023-04-23T11:57:02.780Z,8.32
2023-04-23T11:59:29.207Z,7.70
2023-04-23T12:01:55.745Z,8.32
2023-04-23T12:04:22.544Z,7.90
2023-04-23T12:06:49.360Z,7.82
2023-04-23T12:09:15.914Z,7.07
2023-04-23T12:11:42.515Z,7.38
2023-04-23T12:14:09.493Z,7.43
2023-04-23T12:16:35.956Z,7.93
2023-04-23T12:19:02.482Z,7.13
2023-04-23T12:21:29.154Z,7.40
2023-04-23T12:23:55.847Z,7.25
2023-04-23T12:26:22.295Z,7.43
2023-04-23T12:28:48.741Z,7.55
2023-04-23T12:31:15.424Z,7.10
2023-04-23T12:33:41.898Z,8.07
2023-04-23T12:36:08.745Z,7.22
2023-04-23T12:38:35.386Z,7.13
2023-04-23T12:41:01.993Z,7.07
2023-04-23T12:43:28.493Z,7.30
2023-04-23T12:45:54.966Z,6.90
2023-04-23T12:48:21.508Z,7.22
2023-04-23T12:50:48.073Z,7.05
2023-04-23T12:53:14.847Z,7.18
2023-04-23T12:55:41.198Z,7.30
2023-04-23T12:58:07.776Z,7.30
2023-04-23T13:00:34.294Z,6.88
2023-04-23T13:03:00.838Z,7.13
2023-04-23T13:05:27.685Z,7.15
2023-04-23T13:07:54.224Z,6.85
2023-04-23T13:10:20.736Z,6.97
2023-04-23T13:12:47.694Z,7.60
2023-04-23T13:15:14.156Z,6.40
2023-04-23T13:17:40.662Z,6.28
2023-04-23T13:20:07.188Z,7.28
2023-04-23T13:22:33.695Z,6.65
2023-04-23T13:25:00.680Z,6.57
2023-04-23T13:27:27.356Z,6.32
2023-04-23T13:29:53.833Z,6.55
2023-04-23T13:32:22.063Z,6.50
2023-04-23T13:34:49.369Z,5.90
2023-04-23T13:37:15.794Z,6.90
2023-04-23T13:39:42.348Z,7.30
2023-04-23T13:42:10.186Z,6.22
2023-04-23T13:44:36.886Z,6.70
2023-04-23T13:47:03.682Z,6.47
2023-04-23T13:49:30.687Z,6.55
2023-04-23T13:51:57.129Z,6.60
2023-04-23T13:54:23.609Z,6.50
2023-04-23T13:56:50.142Z,6.28
2023-04-23T13:59:19.847Z,6.10
2023-04-23T14:01:47.656Z,6.53
2023-04-23T14:04:14.242Z,6.20
2023-04-23T14:06:40.884Z,5.88
2023-04-23T14:09:07.386Z,5.78
2023-04-23T14:11:34.060Z,6.07
2023-04-23T14:14:00.668Z,6.00
2023-04-23T14:16:27.261Z,6.53
2023-04-23T14:18:53.816Z,6.25
2023-04-23T14:21:20.275Z,6.57
2023-04-23T14:23:46.820Z,6.80
2023-04-23T14:26:13.397Z,6.63
2023-04-23T14:28:39.797Z,6.05
2023-04-23T14:31:06.561Z,6.05
2023-04-23T14:33:33.275Z,6.53
2023-04-23T14:35:59.879Z,6.15
2023-04-23T14:38:26.410Z,5.93
2023-04-23T14:40:52.977Z,16.27
2023-04-23T14:43:19.717Z,119.10
2023-04-23T14:45:46.293Z,97.07
2023-04-23T14:48:12.758Z,83.82
2023-04-23T14:50:39.540Z,79.72
2023-04-23T14:53:05.996Z,81.35
2023-04-23T14:55:32.619Z,82.57
2023-04-23T14:57:59.135Z,78.28
2023-04-23T15:00:25.988Z,78.75
2023-04-23T15:02:52.588Z,75.75
2023-04-23T15:05:19.071Z,74.53
2023-04-23T15:07:45.713Z,72.88
2023-04-23T15:10:12.472Z,73.57
2023-04-23T15:12:39.200Z,72.72
2023-04-23T15:15:05.802Z,68.95
2023-04-23T15:17:32.872Z,68.38
2023-04-23T15:19:59.612Z,67.35
2023-04-23T15:22:26.052Z,67.18
2023-04-23T15:24:52.566Z,66.15
2023-04-23T15:27:19.021Z,65.53
2023-04-23T15:29:45.595Z,63.47
2023-04-23T15:32:12.188Z,63.88
2023-04-23T15:34:38.776Z,65.65
2023-04-23T15:37:05.252Z,62.40
2023-04-23T15:39:31.690Z,61.45
2023-04-23T15:41:58.163Z,58.63
2023-04-23T15:44:24.863Z,59.42
2023-04-23T15:46:51.333Z,57.08
2023-04-23T15:49:18.059Z,59.35
2023-04-23T15:51:44.884Z,56.72
2023-04-23T15:54:11.659Z,55.45
2023-04-23T15:56:38.411Z,54.92
2023-04-23T15:59:04.982Z,54.70
2023-04-23T16:01:31.526Z,55.78
2023-04-23T16:06:27.655Z,52.20
2023-04-23T16:08:54.332Z,52.90
2023-04-23T16:11:20.779Z,53.60
2023-04-23T16:13:47.509Z,49.90
2023-04-23T16:16:13.955Z,51.90
2023-04-23T16:18:40.548Z,49.90
2023-04-23T16:21:06.946Z,49.65
2023-04-23T16:23:33.577Z,49.47
2023-04-23T16:26:00.143Z,49.10
2023-04-23T16:28:27.210Z,47.92
2023-04-23T16:30:53.829Z,46.58
2023-04-23T16:33:20.259Z,47.50
2023-04-23T16:35:47.004Z,44.85
2023-04-23T16:38:13.696Z,47.92
2023-04-23T16:40:40.341Z,47.20
2023-04-23T16:43:07.175Z,45.00
2023-04-23T16:45:33.616Z,46.33
2023-04-23T16:48:00.175Z,44.83
2023-04-23T16:50:27.521Z,42.60
2023-04-23T16:52:54.551Z,43.80
2023-04-23T16:55:21.136Z,44.95
2023-04-23T16:57:47.879Z,42.53
2023-04-23T17:00:14.542Z,42.20
2023-04-23T17:02:41.205Z,42.40
2023-04-23T17:05:07.971Z,39.58
2023-04-23T17:07:34.969Z,42.00
2023-04-23T17:10:01.460Z,42.53
2023-04-23T17:12:28.278Z,40.08
2023-04-23T17:14:54.910Z,41.40
2023-04-23T17:17:21.553Z,38.97
2023-04-23T17:19:48.130Z,39.63
2023-04-23T17:22:14.707Z,37.90
2023-04-23T17:24:41.575Z,39.70
2023-04-23T17:27:08.661Z,38.50
2023-04-23T17:29:35.592Z,37.75
2023-04-23T17:32:02.378Z,37.28
2023-04-23T17:34:29.104Z,37.05
2023-04-23T17:36:55.606Z,36.35
2023-04-23T17:39:22.049Z,37.53
2023-04-23T17:41:48.854Z,37.72
2023-04-23T17:44:15.304Z,37.63
2023-04-23T17:46:42.049Z,35.78
2023-04-23T17:49:08.865Z,35.08
2023-04-23T17:51:35.431Z,36.17
2023-04-23T17:54:02.567Z,38.17
2023-04-23T17:56:29.119Z,36.53
2023-04-23T17:58:56.016Z,35.72
2023-04-23T18:01:22.545Z,34.72
2023-04-23T18:03:49.309Z,35.83
2023-04-23T18:06:16.103Z,34.70
2023-04-23T18:08:43.003Z,33.78
2023-04-23T18:11:09.537Z,34.67
2023-04-23T18:13:36.195Z,34.95
2023-04-23T18:16:02.696Z,34.38
2023-04-23T18:18:29.553Z,34.22
2023-04-23T18:20:56.336Z,33.55
2023-04-23T18:23:22.908Z,34.90
2023-04-23T18:26:00.878Z,33.65
2023-04-23T18:28:28.036Z,34.70
2023-04-23T18:30:55.526Z,32.50
2023-04-23T18:33:22.066Z,32.85
2023-04-23T18:35:48.552Z,33.22
2023-04-23T18:38:15.229Z,32.35
2023-04-23T18:40:41.961Z,33.17
2023-04-23T18:43:08.715Z,32.28
2023-04-23T18:45:35.383Z,32.33
2023-04-23T18:48:02.431Z,30.45
2023-04-23T18:50:29.792Z,31.83
2023-04-23T18:52:56.771Z,31.17
2023-04-23T18:55:23.858Z,32.28
2023-04-23T18:57:50.323Z,32.00
2023-04-23T19:00:17.175Z,32.47
2023-04-23T19:02:43.660Z,31.25
2023-04-23T19:05:11.357Z,31.95
2023-04-23T19:07:38.034Z,31.92
2023-04-23T19:10:04.841Z,30.35
2023-04-23T19:12:31.893Z,30.70
2023-04-23T19:14:58.646Z,29.92
2023-04-23T19:17:25.572Z,29.48
2023-04-23T19:19:52.188Z,31.45
2023-04-23T19:22:18.839Z,30.85
2023-04-23T19:24:45.567Z,29.85
2023-04-23T19:27:12.044Z,30.70
2023-04-23T19:29:38.889Z,29.85
2023-04-23T19:32:05.570Z,27.73
2023-04-23T19:34:32.440Z,29.02
2023-04-23T19:36:59.022Z,28.92
2023-04-23T19:39:25.509Z,29.60
2023-04-23T19:41:52.191Z,28.67
2023-04-23T19:44:19.044Z,27.02
2023-04-23T19:46:46.132Z,28.67
2023-04-23T19:49:12.791Z,27.08
2023-04-23T19:51:39.498Z,28.00
2023-04-23T19:54:06.181Z,26.85
2023-04-23T19:56:33.115Z,24.45
2023-04-23T19:58:59.989Z,26.70
2023-04-23T20:01:26.783Z,25.20
2023-04-23T20:03:53.339Z,25.25
2023-04-23T20:06:20.283Z,24.67
2023-04-23T20:08:46.984Z,25.42
2023-04-23T20:11:13.564Z,25.00
2023-04-23T20:13:40.103Z,25.25
2023-04-23T20:16:07.225Z,24.50
2023-04-23T20:18:33.866Z,24.08
2023-04-23T20:21:00.708Z,23.83
2023-04-23T20:23:27.476Z,24.08
2023-04-23T20:25:54.473Z,23.35
2023-04-23T20:28:21.168Z,22.30
2023-04-23T20:30:48.128Z,24.83
2023-04-23T20:33:15.266Z,22.55
2023-04-23T20:35:41.773Z,22.60
2023-04-23T20:38:08.672Z,22.13
2023-04-23T20:40:35.076Z,20.98
2023-04-23T20:43:01.936Z,21.05
2023-04-23T20:45:28.710Z,21.10
2023-04-23T20:47:55.403Z,20.80
2023-04-23T20:50:22.135Z,19.55
2023-04-23T20:52:49.270Z,19.88
2023-04-23T20:55:15.903Z,20.33
2023-04-23T20:57:43.072Z,19.95
2023-04-23T21:00:09.666Z,21.02
2023-04-23T21:02:36.831Z,20.90
2023-04-23T21:05:03.993Z,19.77
2023-04-23T21:07:30.586Z,19.17
2023-04-23T21:09:57.040Z,19.65
2023-04-23T21:12:23.898Z,20.58
2023-04-23T21:14:50.533Z,18.65
2023-04-23T21:17:17.601Z,18.73
2023-04-23T21:19:44.357Z,17.98
2023-04-23T21:22:11.004Z,19.27
2023-04-23T21:24:37.543Z,18.33
2023-04-23T21:27:04.091Z,18.13
2023-04-23T21:29:30.936Z,17.83
2023-04-23T21:31:57.369Z,17.92
2023-04-23T21:34:23.930Z,17.23
2023-04-23T21:36:50.634Z,18.25
2023-04-23T21:39:17.539Z,18.60
2023-04-23T21:41:43.964Z,17.60
2023-04-23T21:44:10.914Z,17.02
2023-04-23T21:46:37.435Z,17.55
2023-04-23T21:49:03.926Z,16.27
2023-04-23T21:51:30.867Z,18.08
2023-04-23T21:53:57.506Z,16.23
2023-04-23T21:56:23.969Z,16.45
2023-04-23T21:58:50.491Z,16.05
2023-04-23T22:01:17.084Z,17.17
2023-04-23T22:03:43.762Z,17.55
2023-04-23T22:06:10.465Z,16.13
2023-04-23T22:08:37.343Z,16.58
2023-04-23T22:11:04.374Z,16.52
2023-04-23T22:13:30.935Z,16.33
2023-04-23T22:15:58.080Z,16.02
2023-04-23T22:18:25.066Z,14.90
2023-04-23T22:20:51.556Z,15.02
2023-04-23T22:23:18.627Z,15.32
2023-04-23T22:25:45.470Z,14.35
2023-04-23T22:28:11.975Z,14.27
2023-04-23T22:30:38.547Z,15.07
2023-04-23T22:33:05.463Z,15.02
2023-04-23T22:35:32.737Z,15.77
2023-04-23T22:37:59.462Z,15.10
2023-04-23T22:40:26.140Z,14.77
2023-04-23T22:42:52.793Z,14.93
2023-04-23T22:45:20.767Z,15.00
2023-04-23T22:47:47.896Z,15.27
2023-04-23T22:50:14.400Z,14.85
2023-04-23T22:52:41.069Z,14.13
2023-04-23T22:55:07.558Z,14.60
2023-04-23T22:57:34.140Z,13.50
2023-04-23T23:00:00.718Z,13.65
2023-04-23T23:02:28.079Z,14.00
2023-04-23T23:04:54.616Z,13.65
2023-04-23T23:07:21.258Z,13.45
2023-04-23T23:09:47.677Z,13.43
2023-04-23T23:12:14.601Z,13.40
2023-04-23T23:14:41.329Z,14.68
2023-04-23T23:17:07.821Z,13.57
2023-04-23T23:19:34.659Z,14.32
2023-04-23T23:22:01.432Z,13.68
2023-04-23T23:24:28.359Z,13.80
2023-04-23T23:26:54.787Z,13.02
2023-04-23T23:29:21.260Z,13.00
2023-04-23T23:31:47.995Z,13.98
2023-04-23T23:34:14.629Z,13.25
2023-04-23T23:36:41.054Z,12.40
2023-04-23T23:39:07.762Z,13.27
2023-04-23T23:41:34.510Z,12.85
2023-04-23T23:44:01.014Z,11.98
2023-04-23T23:46:27.508Z,12.27
2023-04-23T23:48:54.114Z,12.48
2023-04-23T23:51:20.569Z,12.85
2023-04-23T23:53:47.050Z,11.73
2023-04-23T23:56:13.447Z,11.45
2023-04-23T23:58:40.150Z,12.13
